Time;durP1;ratioP1;P1;durP2;ratioP2;P2;SDS_P1;SDS_P2;PMS_P1;PMS_P2;Temp;Humidity;BMP_temperature;BMP_pressure;BME280_temperature;BME280_humidity;BME280_pressure;Samples;Min_cycle;Max_cycle;Signal;HPM_P1;HPM_P2
2021/12/06 00:00:07;;;;;;;;;13.00;12.33;;;;;;;;5078425;28;11507;-73
2021/12/06 00:02:33;;;;;;;;;18.33;14.67;;;;;;;;5078810;28;13297;-73
2021/12/06 00:04:59;;;;;;;;;24.00;21.00;;;;;;;;5078409;28;11454;-73
2021/12/06 00:07:24;;;;;;;;;23.00;23.00;;;;;;;;5078284;28;13966;-72
2021/12/06 00:09:50;;;;;;;;;24.00;23.00;;;;;;;;5078158;28;8832;-73
2021/12/06 00:12:16;;;;;;;;;26.33;23.00;;;;;;;;5078526;28;8839;-73
2021/12/06 00:14:42;;;;;;;;;25.67;20.67;;;;;;;;5078834;28;9143;-72
2021/12/06 00:17:08;;;;;;;;;29.00;21.33;;;;;;;;5078834;28;11364;-73
2021/12/06 00:19:34;;;;;;;;;25.33;24.67;;;;;;;;5078280;28;11651;-73
2021/12/06 00:22:00;;;;;;;;;26.33;22.00;;;;;;;;5078711;28;11644;-73
2021/12/06 00:24:26;;;;;;;;;23.67;19.67;;;;;;;;5079412;28;13186;-74
2021/12/06 00:26:51;;;;;;;;;24.00;24.00;;;;;;;;5078780;28;12336;-73
2021/12/06 00:29:17;;;;;;;;;25.67;22.67;;;;;;;;5079193;28;12230;-74
2021/12/06 00:31:43;;;;;;;;;16.67;15.67;;;;;;;;5078539;28;11817;-74
2021/12/06 00:34:13;;;;;;;;;21.67;21.67;;;;;;;;5078754;28;10804;-74
2021/12/06 00:36:40;;;;;;;;;19.33;18.33;;;;;;;;5078611;28;10421;-73
2021/12/06 00:39:07;;;;;;;;;15.33;13.00;;;;;;;;5078701;28;13598;-72
2021/12/06 00:41:33;;;;;;;;;22.00;18.33;;;;;;;;5077838;28;11464;-72
2021/12/06 00:44:00;;;;;;;;;17.33;15.67;;;;;;;;5078302;28;14104;-72
2021/12/06 00:46:25;;;;;;;;;21.33;16.00;;;;;;;;5078611;28;14736;-73
2021/12/06 00:48:51;;;;;;;;;18.00;15.67;;;;;;;;5082125;28;13379;-73
2021/12/06 00:51:17;;;;;;;;;15.00;13.00;;;;;;;;5082231;28;13327;-73
2021/12/06 00:53:43;;;;;;;;;13.67;13.67;;;;;;;;5082169;28;11376;-73
2021/12/06 00:56:08;;;;;;;;;13.67;12.00;;;;;;;;5081303;28;11616;-72
2021/12/06 00:58:34;;;;;;;;;15.33;15.00;;;;;;;;5081686;28;8862;-73
2021/12/06 01:00:59;;;;;;;;;9.67;9.00;;;;;;;;5081591;28;10589;-73
2021/12/06 01:03:30;;;;;;;;;18.00;12.00;;;;;;;;5081990;28;22178;-73
2021/12/06 01:05:56;;;;;;;;;15.00;13.00;;;;;;;;5082051;28;22468;-73
2021/12/06 01:08:21;;;;;;;;;20.67;13.00;;;;;;;;5081553;28;8803;-73
2021/12/06 01:10:47;;;;;;;;;14.33;13.00;;;;;;;;5081423;28;10180;-74
2021/12/06 01:13:13;;;;;;;;;12.67;12.00;;;;;;;;5081564;28;10241;-74
2021/12/06 01:15:39;;;;;;;;;15.00;13.00;;;;;;;;5081496;28;10401;-74
2021/12/06 01:18:05;;;;;;;;;17.33;16.00;;;;;;;;5081298;28;11662;-74
2021/12/06 01:20:34;;;;;;;;;19.00;17.67;;;;;;;;5081957;28;11806;-74
2021/12/06 01:23:05;;;;;;;;;14.67;14.67;;;;;;;;5081784;28;11823;-74
2021/12/06 01:25:52;;;;;;;;;18.33;15.33;;;;;;;;5081715;28;10937;-74
2021/12/06 01:33:35;;;;;;;;;10.33;8.67;;;;;;;;5081690;28;8880;-73
2021/12/06 01:41:30;;;;;;;;;15.33;12.67;;;;;;;;5080802;28;13265;-73
2021/12/06 01:44:07;;;;;;;;;13.33;10.00;;;;;;;;5081521;28;11448;-73
2021/12/06 01:46:33;;;;;;;;;19.00;13.00;;;;;;;;5080643;28;11839;-72
2021/12/06 01:48:59;;;;;;;;;17.00;13.33;;;;;;;;5080972;28;10421;-73
2021/12/06 01:51:24;;;;;;;;;14.67;14.67;;;;;;;;5080965;28;11608;-73
2021/12/06 01:53:50;;;;;;;;;21.67;17.00;;;;;;;;5081042;28;11548;-72
2021/12/06 01:56:15;;;;;;;;;15.67;13.00;;;;;;;;5063018;28;15938;-73
2021/12/06 01:58:42;;;;;;;;;12.33;11.33;;;;;;;;5080261;28;10706;-73
2021/12/06 02:01:07;;;;;;;;;16.00;11.00;;;;;;;;5080925;28;12637;-74
2021/12/06 02:03:32;;;;;;;;;15.00;13.33;;;;;;;;5080807;28;11366;-72
2021/12/06 02:05:58;;;;;;;;;14.00;13.00;;;;;;;;5080378;28;11818;-73
2021/12/06 02:08:23;;;;;;;;;19.00;11.00;;;;;;;;5080659;28;11399;-72
2021/12/06 02:10:49;;;;;;;;;15.33;14.00;;;;;;;;5080648;28;10149;-73
2021/12/06 02:13:15;;;;;;;;;18.67;16.00;;;;;;;;5081393;28;10376;-72
2021/12/06 02:15:50;;;;;;;;;14.67;13.67;;;;;;;;5080936;28;10522;-73
2021/12/06 02:21:08;;;;;;;;;11.00;7.00;;;;;;;;5081236;28;9904;-73
2021/12/06 02:23:33;;;;;;;;;14.33;10.67;;;;;;;;5079902;28;22165;-73
2021/12/06 02:25:59;;;;;;;;;13.00;10.00;;;;;;;;5080576;28;21676;-72
2021/12/06 02:28:24;;;;;;;;;13.33;7.00;;;;;;;;5080665;28;11550;-73
2021/12/06 02:30:49;;;;;;;;;5.00;4.00;;;;;;;;5080701;28;21386;-73
2021/12/06 02:33:15;;;;;;;;;13.00;8.00;;;;;;;;5080439;28;22863;-73
2021/12/06 02:35:40;;;;;;;;;15.00;7.67;;;;;;;;5078452;28;23420;-73
2021/12/06 02:38:07;;;;;;;;;10.00;8.00;;;;;;;;5080586;28;10475;-74
2021/12/06 02:40:33;;;;;;;;;10.00;7.00;;;;;;;;5079399;28;10381;-73
2021/12/06 02:43:00;;;;;;;;;6.33;6.33;;;;;;;;5080243;28;8908;-73
2021/12/06 02:45:26;;;;;;;;;7.00;4.00;;;;;;;;5080120;28;21414;-72
2021/12/06 02:47:53;;;;;;;;;8.33;5.00;;;;;;;;5080178;28;11432;-73
2021/12/06 02:50:20;;;;;;;;;7.00;7.00;;;;;;;;5079620;28;11684;-73
2021/12/06 02:52:46;;;;;;;;;2.67;2.00;;;;;;;;5080582;28;10374;-74
2021/12/06 02:55:29;;;;;;;;;10.67;7.67;;;;;;;;5080296;28;10540;-74
2021/12/06 02:57:57;;;;;;;;;5.67;5.67;;;;;;;;5080315;28;23049;-74
2021/12/06 03:00:23;;;;;;;;;10.33;8.00;;;;;;;;5079632;28;22912;-74
2021/12/06 03:02:49;;;;;;;;;9.00;7.67;;;;;;;;5079809;28;22858;-74
2021/12/06 03:05:14;;;;;;;;;11.00;7.00;;;;;;;;5080144;28;21441;-73
2021/12/06 03:07:40;;;;;;;;;11.00;8.00;;;;;;;;5080171;28;22660;-72
2021/12/06 03:10:06;;;;;;;;;8.00;7.33;;;;;;;;5078660;28;8942;-72
2021/12/06 03:12:31;;;;;;;;;8.00;7.67;;;;;;;;5079732;28;21437;-73
2021/12/06 03:14:58;;;;;;;;;11.67;8.67;;;;;;;;5080009;28;8768;-73
2021/12/06 03:17:25;;;;;;;;;12.00;8.00;;;;;;;;5078887;28;22102;-73
2021/12/06 03:19:50;;;;;;;;;10.33;8.00;;;;;;;;5079897;28;12126;-73
2021/12/06 03:22:16;;;;;;;;;10.67;7.67;;;;;;;;5079865;28;8780;-74
2021/12/06 03:24:42;;;;;;;;;13.00;8.00;;;;;;;;5079470;28;10348;-73
2021/12/06 03:27:08;;;;;;;;;10.00;8.00;;;;;;;;5060312;28;10456;-73
2021/12/06 03:29:34;;;;;;;;;11.00;8.00;;;;;;;;5079260;28;8781;-73
2021/12/06 03:31:59;;;;;;;;;10.00;7.67;;;;;;;;5080089;28;9309;-73
2021/12/06 03:34:28;;;;;;;;;7.33;7.00;;;;;;;;5080039;28;10297;-73
2021/12/06 03:36:54;;;;;;;;;11.67;8.00;;;;;;;;5079384;28;21439;-73
2021/12/06 03:39:23;;;;;;;;;8.67;8.00;;;;;;;;5079305;28;21408;-73
2021/12/06 03:41:49;;;;;;;;;7.00;5.67;;;;;;;;5079490;28;16483;-74
2021/12/06 03:44:14;;;;;;;;;8.00;7.00;;;;;;;;5079573;28;11606;-73
2021/12/06 03:46:40;;;;;;;;;8.00;7.00;;;;;;;;5079534;28;11496;-74
2021/12/06 03:49:13;;;;;;;;;11.00;7.00;;;;;;;;5079302;28;8881;-73
2021/12/06 03:51:38;;;;;;;;;10.67;7.00;;;;;;;;5079149;28;16469;-74
2021/12/06 03:54:04;;;;;;;;;9.33;8.00;;;;;;;;5079493;28;9168;-74
2021/12/06 03:56:29;;;;;;;;;10.00;7.67;;;;;;;;5079328;28;22699;-74
2021/12/06 03:58:54;;;;;;;;;10.00;7.00;;;;;;;;5078809;28;21488;-73
2021/12/06 04:01:20;;;;;;;;;10.00;5.00;;;;;;;;5079788;28;8796;-73
2021/12/06 04:03:45;;;;;;;;;3.33;2.67;;;;;;;;5079255;28;8793;-74
2021/12/06 04:06:11;;;;;;;;;7.00;4.33;;;;;;;;5078569;28;21951;-73
2021/12/06 04:08:37;;;;;;;;;6.33;6.33;;;;;;;;5078883;28;11638;-74
2021/12/06 04:11:02;;;;;;;;;5.33;2.33;;;;;;;;5078375;28;11421;-73
2021/12/06 04:13:28;;;;;;;;;7.67;5.00;;;;;;;;5079526;28;8769;-72
2021/12/06 04:15:53;;;;;;;;;4.00;4.00;;;;;;;;5079761;28;11335;-72
2021/12/06 04:18:19;;;;;;;;;6.67;6.67;;;;;;;;5079440;28;10522;-72
2021/12/06 04:20:44;;;;;;;;;3.33;3.33;;;;;;;;5078847;28;11539;-72
2021/12/06 04:23:10;;;;;;;;;0.33;0.33;;;;;;;;5078908;28;11366;-72
2021/12/06 04:25:36;;;;;;;;;1.00;1.00;;;;;;;;5078653;28;8915;-73
2021/12/06 04:28:06;;;;;;;;;2.00;2.00;;;;;;;;5078697;28;12438;-74
2021/12/06 04:30:33;;;;;;;;;3.33;3.33;;;;;;;;5078346;28;9971;-73
2021/12/06 04:32:59;;;;;;;;;0.00;0.00;;;;;;;;5078952;28;11948;-73
2021/12/06 04:35:25;;;;;;;;;0.00;0.00;;;;;;;;5078971;28;11524;-73
2021/12/06 04:37:51;;;;;;;;;0.00;0.00;;;;;;;;5079049;28;8764;-73
2021/12/06 04:40:17;;;;;;;;;1.00;1.00;;;;;;;;5078102;28;8796;-73
2021/12/06 04:42:42;;;;;;;;;0.00;0.00;;;;;;;;5078643;28;8765;-74
2021/12/06 04:45:08;;;;;;;;;2.33;0.00;;;;;;;;5078695;28;8869;-72
2021/12/06 04:47:35;;;;;;;;;0.00;0.00;;;;;;;;5078902;28;8854;-73
2021/12/06 04:50:00;;;;;;;;;2.33;0.00;;;;;;;;5078914;28;8857;-74
2021/12/06 04:52:26;;;;;;;;;2.00;1.00;;;;;;;;5078341;28;8764;-73
2021/12/06 04:54:53;;;;;;;;;2.00;2.00;;;;;;;;5078469;28;9710;-73
2021/12/06 04:57:19;;;;;;;;;4.00;2.00;;;;;;;;5078475;28;8966;-73
2021/12/06 04:59:46;;;;;;;;;3.33;2.00;;;;;;;;5078431;28;8899;-72
2021/12/06 05:02:17;;;;;;;;;5.67;5.33;;;;;;;;5077984;28;8917;-72
2021/12/06 05:04:47;;;;;;;;;6.00;5.33;;;;;;;;5078826;28;11435;-73
2021/12/06 05:07:16;;;;;;;;;2.67;2.33;;;;;;;;5078344;28;9057;-73
2021/12/06 05:09:42;;;;;;;;;2.00;2.00;;;;;;;;5077754;28;10536;-72
2021/12/06 05:12:09;;;;;;;;;5.33;5.33;;;;;;;;5078618;28;8816;-72
2021/12/06 05:14:34;;;;;;;;;9.67;4.67;;;;;;;;5078249;28;11435;-73
2021/12/06 05:17:00;;;;;;;;;5.67;3.33;;;;;;;;5077930;28;11290;-73
2021/12/06 05:19:25;;;;;;;;;2.33;1.00;;;;;;;;5078231;28;11346;-73
2021/12/06 05:21:51;;;;;;;;;0.67;0.00;;;;;;;;5077536;28;11313;-73
2021/12/06 05:24:16;;;;;;;;;0.00;0.00;;;;;;;;5078224;28;10348;-74
2021/12/06 05:26:42;;;;;;;;;1.33;1.00;;;;;;;;5078490;28;8797;-73
2021/12/06 05:29:08;;;;;;;;;1.00;0.00;;;;;;;;5078181;28;10277;-72
2021/12/06 05:31:39;;;;;;;;;1.00;1.00;;;;;;;;5078620;28;9520;-73
2021/12/06 05:34:09;;;;;;;;;1.00;1.00;;;;;;;;5079990;28;8776;-73
2021/12/06 05:36:35;;;;;;;;;0.00;0.00;;;;;;;;5081934;28;8866;-73
2021/12/06 05:39:00;;;;;;;;;1.00;0.00;;;;;;;;5082222;28;8893;-75
2021/12/06 05:41:25;;;;;;;;;1.00;0.00;;;;;;;;5081475;28;8824;-75
2021/12/06 05:43:51;;;;;;;;;0.33;0.00;;;;;;;;5081366;28;8903;-76
2021/12/06 05:46:16;;;;;;;;;0.00;0.00;;;;;;;;5063210;28;9576;-76
2021/12/06 05:48:41;;;;;;;;;0.00;0.00;;;;;;;;5081780;28;8793;-75
2021/12/06 05:51:07;;;;;;;;;1.00;1.00;;;;;;;;5082935;28;8781;-78
2021/12/06 05:53:32;;;;;;;;;1.00;1.00;;;;;;;;5091016;28;9593;-76
2021/12/06 05:55:58;;;;;;;;;2.00;2.00;;;;;;;;5092924;28;8825;-75
2021/12/06 05:58:26;;;;;;;;;2.00;1.00;;;;;;;;5081799;28;8792;-76
2021/12/06 06:00:52;;;;;;;;;0.00;0.00;;;;;;;;5063563;28;8788;-73
2021/12/06 06:03:17;;;;;;;;;1.00;1.00;;;;;;;;5081608;28;8827;-75
2021/12/06 06:05:43;;;;;;;;;1.00;1.00;;;;;;;;5081891;28;9517;-75
2021/12/06 06:08:09;;;;;;;;;2.00;2.00;;;;;;;;5063954;28;8808;-83
2021/12/06 06:10:34;;;;;;;;;8.00;5.33;;;;;;;;5084818;28;8857;-79
2021/12/06 06:13:01;;;;;;;;;2.67;2.00;;;;;;;;5081009;28;11486;-78
2021/12/06 06:15:28;;;;;;;;;4.00;1.00;;;;;;;;5080981;28;12258;-76
2021/12/06 06:17:54;;;;;;;;;2.00;2.00;;;;;;;;5081081;28;10685;-73
2021/12/06 06:20:29;;;;;;;;;2.00;1.33;;;;;;;;5081159;28;9778;-77
2021/12/06 06:22:55;;;;;;;;;1.00;1.00;;;;;;;;5081469;28;9118;-76
2021/12/06 06:25:20;;;;;;;;;1.67;1.67;;;;;;;;5076776;28;11598;-76
2021/12/06 06:27:46;;;;;;;;;1.00;1.00;;;;;;;;5081226;28;8841;-81
2021/12/06 06:30:12;;;;;;;;;4.00;1.33;;;;;;;;5081713;28;8894;-81
2021/12/06 06:32:37;;;;;;;;;4.67;4.00;;;;;;;;5082351;28;11543;-78
2021/12/06 06:35:03;;;;;;;;;1.67;1.67;;;;;;;;5081656;28;10283;-78
2021/12/06 06:37:28;;;;;;;;;4.00;4.00;;;;;;;;5081039;28;11722;-76
2021/12/06 06:39:53;;;;;;;;;5.00;5.00;;;;;;;;5080595;28;11871;-82
2021/12/06 06:42:23;;;;;;;;;0.00;0.00;;;;;;;;5080736;28;8796;-80
2021/12/06 06:44:48;;;;;;;;;5.00;4.00;;;;;;;;5081544;28;8902;-83
2021/12/06 06:47:14;;;;;;;;;1.67;1.67;;;;;;;;5081597;28;8801;-78
2021/12/06 06:49:39;;;;;;;;;2.67;1.00;;;;;;;;5081453;28;11341;-78
2021/12/06 06:52:04;;;;;;;;;1.33;1.33;;;;;;;;5080565;28;11300;-76
2021/12/06 06:54:30;;;;;;;;;3.33;2.00;;;;;;;;5079883;28;11786;-75
2021/12/06 06:56:55;;;;;;;;;4.33;4.33;;;;;;;;5061936;28;11872;-77
2021/12/06 06:59:20;;;;;;;;;5.00;4.00;;;;;;;;5080006;28;11368;-74
2021/12/06 07:01:46;;;;;;;;;5.00;5.00;;;;;;;;5080021;28;11844;-73
2021/12/06 07:04:12;;;;;;;;;8.67;8.00;;;;;;;;5096122;28;8895;-76
2021/12/06 07:06:37;;;;;;;;;2.67;2.67;;;;;;;;5100045;28;10675;-76
2021/12/06 07:09:03;;;;;;;;;3.67;3.33;;;;;;;;5099843;28;11368;-75
2021/12/06 07:11:28;;;;;;;;;5.33;4.00;;;;;;;;5100082;28;12491;-74
2021/12/06 07:13:54;;;;;;;;;5.00;4.67;;;;;;;;5099727;28;11316;-75
2021/12/06 07:16:19;;;;;;;;;4.67;4.67;;;;;;;;5081309;28;8828;-74
2021/12/06 07:18:44;;;;;;;;;5.67;5.00;;;;;;;;5079505;28;8816;-74
2021/12/06 07:21:10;;;;;;;;;4.00;4.00;;;;;;;;5079301;28;11378;-74
2021/12/06 07:23:38;;;;;;;;;4.67;4.67;;;;;;;;5061085;28;10725;-74
2021/12/06 07:26:05;;;;;;;;;7.33;6.00;;;;;;;;5077660;28;8898;-74
2021/12/06 07:28:31;;;;;;;;;5.33;5.33;;;;;;;;5078450;28;11412;-74
2021/12/06 07:30:58;;;;;;;;;5.33;5.33;;;;;;;;5077885;28;11970;-74
2021/12/06 07:33:25;;;;;;;;;9.33;5.33;;;;;;;;5077838;28;8891;-75
2021/12/06 07:35:50;;;;;;;;;12.00;10.00;;;;;;;;5078138;28;9592;-74
2021/12/06 07:38:16;;;;;;;;;7.67;7.67;;;;;;;;5077273;28;22363;-73
2021/12/06 07:40:41;;;;;;;;;10.67;7.33;;;;;;;;5077738;28;23817;-74
2021/12/06 07:43:06;;;;;;;;;5.00;5.00;;;;;;;;5077629;28;22115;-74
2021/12/06 07:45:32;;;;;;;;;6.00;6.00;;;;;;;;5075424;28;21283;-74
2021/12/06 07:47:57;;;;;;;;;7.00;6.67;;;;;;;;5067633;28;8873;-76
2021/12/06 07:50:22;;;;;;;;;7.33;6.00;;;;;;;;5057496;28;11461;-81
2021/12/06 07:52:49;;;;;;;;;7.33;6.33;;;;;;;;5061740;28;9906;-80
2021/12/06 07:55:16;;;;;;;;;9.00;6.67;;;;;;;;5061892;28;8747;-79
2021/12/06 07:57:42;;;;;;;;;6.33;5.33;;;;;;;;5060025;28;11426;-76
2021/12/06 08:00:16;;;;;;;;;10.00;8.67;;;;;;;;5058902;28;11569;-75
2021/12/06 08:02:41;;;;;;;;;6.00;6.00;;;;;;;;5059094;28;21471;-79
2021/12/06 08:07:51;;;;;;;;;6.00;5.00;;;;;;;;5063673;28;10545;-79
2021/12/06 08:10:16;;;;;;;;;7.00;6.00;;;;;;;;5059336;28;8955;-79
2021/12/06 08:12:42;;;;;;;;;9.00;9.00;;;;;;;;5058650;28;9479;-76
2021/12/06 08:15:08;;;;;;;;;6.67;6.67;;;;;;;;5058922;28;9203;-76
2021/12/06 08:17:34;;;;;;;;;6.00;5.00;;;;;;;;5058236;28;11722;-75
2021/12/06 08:19:59;;;;;;;;;5.33;4.33;;;;;;;;5058446;28;10836;-75
2021/12/06 08:22:24;;;;;;;;;5.33;5.00;;;;;;;;5058250;28;11979;-75
2021/12/06 08:24:50;;;;;;;;;5.00;5.00;;;;;;;;5058437;28;8880;-72
2021/12/06 08:27:15;;;;;;;;;10.00;3.67;;;;;;;;5058449;28;8799;-72
2021/12/06 08:29:42;;;;;;;;;;;;;;;;;;5060811;28;21441;-81
2021/12/06 08:32:07;;;;;;;;;7.00;4.33;;;;;;;;5041212;28;21905;-82
2021/12/06 08:34:33;;;;;;;;;7.00;5.00;;;;;;;;5058655;28;20769;-76
2021/12/06 08:36:58;;;;;;;;;4.33;4.33;;;;;;;;5059165;28;8837;-77
2021/12/06 08:39:24;;;;;;;;;5.00;5.00;;;;;;;;5058948;28;11327;-77
2021/12/06 08:41:49;;;;;;;;;5.00;5.00;;;;;;;;5058926;28;11841;-77
2021/12/06 08:44:15;;;;;;;;;6.00;5.00;;;;;;;;5059012;28;8787;-78
2021/12/06 08:46:40;;;;;;;;;5.00;5.00;;;;;;;;5073124;28;8828;-77
2021/12/06 08:49:06;;;;;;;;;6.00;3.00;;;;;;;;5076430;28;8813;-78
2021/12/06 08:51:34;;;;;;;;;3.75;2.50;;;;;;;;5077441;28;8772;-77
2021/12/06 08:54:00;;;;;;;;;3.00;3.00;;;;;;;;5078505;28;11429;-77
2021/12/06 08:56:27;;;;;;;;;5.00;4.50;;;;;;;;5078048;28;11449;-78
2021/12/06 08:58:52;;;;;;;;;7.75;6.75;;;;;;;;5078447;28;11498;-76
2021/12/06 09:01:18;;;;;;;;;4.25;4.25;;;;;;;;5059875;28;13373;-76
2021/12/06 09:03:43;;;;;;;;;4.33;4.33;;;;;;;;5078352;28;10537;-75
2021/12/06 09:06:09;;;;;;;;;2.00;2.00;;;;;;;;5079293;28;9695;-75
2021/12/06 09:08:35;;;;;;;;;2.50;2.50;;;;;;;;5080479;28;11384;-75
2021/12/06 09:11:01;;;;;;;;;1.75;1.75;;;;;;;;5081154;28;11423;-76
2021/12/06 09:13:28;;;;;;;;;2.25;2.00;;;;;;;;5083428;28;11347;-76
2021/12/06 09:15:55;;;;;;;;;2.00;1.00;;;;;;;;5080534;28;11779;-76
2021/12/06 09:18:21;;;;;;;;;3.25;3.25;;;;;;;;5080639;28;11434;-75
2021/12/06 09:20:48;;;;;;;;;1.50;1.50;;;;;;;;5080324;28;11567;-75
2021/12/06 09:23:14;;;;;;;;;2.00;2.00;;;;;;;;5080364;28;13678;-75
2021/12/06 09:25:40;;;;;;;;;2.00;2.00;;;;;;;;5080785;28;11462;-76
2021/12/06 09:28:05;;;;;;;;;2.00;2.00;;;;;;;;5081199;28;11627;-77
2021/12/06 10:50:26;;;;;;;;;1.00;1.00;;;;;;;;5215435;27;78924;-77
2021/12/06 10:52:53;;;;;;;;;5.00;3.67;;;;;;;;5198463;27;22248;-78
2021/12/06 10:55:20;;;;;;;;;2.00;1.00;;;;;;;;5198190;27;11560;-77
2021/12/06 10:57:51;;;;;;;;;2.00;2.00;;;;;;;;5199511;27;11505;-75
2021/12/06 11:00:33;;;;;;;;;1.25;1.25;;;;;;;;5199055;27;11432;-68
2021/12/06 11:02:58;;;;;;;;;2.00;2.00;;;;;;;;5199733;27;11561;-69
2021/12/06 11:07:39;;;;;;;;;0.75;0.00;;;;;;;;5192981;27;78760;-71
2021/12/06 11:10:05;;;;;;;;;0.75;0.75;;;;;;;;5178200;27;20695;-72
2021/12/06 11:12:34;;;;;;;;;1.00;1.00;;;;;;;;5179155;27;8776;-74
2021/12/06 11:17:19;;;;;;;;;2.50;2.50;;;;;;;;5160554;27;1472370;-72
2021/12/06 11:19:45;;;;;;;;;2.00;2.00;;;;;;;;5195259;27;20862;-75
2021/12/06 11:22:18;;;;;;;;;2.00;2.00;;;;;;;;5196533;27;10884;-75
2021/12/06 11:24:46;;;;;;;;;1.00;1.00;;;;;;;;5200400;27;9600;-73
2021/12/06 11:27:11;;;;;;;;;2.25;2.00;;;;;;;;5120152;27;11567;-74
2021/12/06 11:30:10;;;;;;;;;2.00;2.00;;;;;;;;5141889;27;10774;-72
2021/12/06 11:32:35;;;;;;;;;2.00;2.00;;;;;;;;5112758;27;8786;-73
2021/12/06 11:35:08;;;;;;;;;3.00;1.50;;;;;;;;5136627;27;10831;-72
2021/12/06 11:37:34;;;;;;;;;3.25;2.00;;;;;;;;5136891;27;11388;-72
2021/12/06 11:40:20;;;;;;;;;4.00;2.00;;;;;;;;5101974;27;12397;-78
2021/12/06 11:44:38;;;;;;;;;2.00;1.50;;;;;;;;5166250;27;78727;-73
2021/12/06 11:47:03;;;;;;;;;4.50;2.00;;;;;;;;5146260;27;21139;-71
2021/12/06 11:49:31;;;;;;;;;1.00;1.00;;;;;;;;5138311;27;12987;-71
2021/12/06 11:51:57;;;;;;;;;2.00;2.00;;;;;;;;5140854;27;10416;-71
2021/12/06 11:54:23;;;;;;;;;2.00;1.75;;;;;;;;5153924;27;11571;-71
2021/12/06 11:56:49;;;;;;;;;2.00;2.00;;;;;;;;5147600;27;8799;-71
2021/12/06 11:59:17;;;;;;;;;7.75;4.75;;;;;;;;5147095;27;9308;-73
2021/12/06 12:01:44;;;;;;;;;2.00;2.00;;;;;;;;5146939;27;12282;-71
2021/12/06 12:04:15;;;;;;;;;2.00;1.00;;;;;;;;5142166;27;11553;-74
2021/12/06 12:06:42;;;;;;;;;2.00;2.00;;;;;;;;5148040;27;11443;-72
2021/12/06 12:09:07;;;;;;;;;1.00;1.00;;;;;;;;5143793;27;11564;-72
2021/12/06 12:11:51;;;;;;;;;3.00;3.00;;;;;;;;5143271;27;11568;-71
2021/12/06 12:14:16;;;;;;;;;2.50;2.50;;;;;;;;5135465;27;9082;-71
2021/12/06 12:16:41;;;;;;;;;4.50;3.00;;;;;;;;5135056;27;11453;-71
2021/12/06 12:19:07;;;;;;;;;2.50;2.50;;;;;;;;5134746;27;13862;-72
2021/12/06 12:21:32;;;;;;;;;3.00;1.75;;;;;;;;5135541;27;11725;-72
2021/12/06 12:23:59;;;;;;;;;2.00;2.00;;;;;;;;5138915;27;11266;-75
2021/12/06 12:26:24;;;;;;;;;2.00;2.00;;;;;;;;5142324;27;11610;-74
2021/12/06 12:29:00;;;;;;;;;3.00;3.00;;;;;;;;5141209;27;11547;-74
2021/12/06 12:31:30;;;;;;;;;4.50;3.00;;;;;;;;5135215;27;8802;-73
2021/12/06 12:33:56;;;;;;;;;2.25;2.00;;;;;;;;5135821;27;11437;-73
2021/12/06 12:36:23;;;;;;;;;2.50;2.50;;;;;;;;5134790;27;11491;-73
2021/12/06 12:38:50;;;;;;;;;4.00;2.00;;;;;;;;5135447;27;9325;-73
2021/12/06 12:41:17;;;;;;;;;2.00;2.00;;;;;;;;5135316;27;12258;-73
2021/12/06 12:43:47;;;;;;;;;3.00;1.25;;;;;;;;5134164;27;12330;-72
2021/12/06 12:46:13;;;;;;;;;4.50;2.00;;;;;;;;5134533;27;11432;-73
2021/12/06 12:48:54;;;;;;;;;3.00;3.00;;;;;;;;5135454;27;11639;-72
2021/12/06 12:51:25;;;;;;;;;4.00;3.25;;;;;;;;5132770;27;12262;-73
2021/12/06 12:53:55;;;;;;;;;3.00;2.50;;;;;;;;5131823;27;11840;-76
2021/12/06 12:56:22;;;;;;;;;4.00;3.00;;;;;;;;5121779;27;12744;-73
2021/12/06 12:58:47;;;;;;;;;3.00;2.00;;;;;;;;5119162;27;11766;-75
2021/12/06 13:01:14;;;;;;;;;3.00;3.00;;;;;;;;5125736;27;11463;-77
2021/12/06 13:03:43;;;;;;;;;1.50;1.50;;;;;;;;5121322;27;8802;-73
2021/12/06 13:06:27;;;;;;;;;2.00;2.00;;;;;;;;5137936;27;12452;-74
2021/12/06 13:08:57;;;;;;;;;4.50;2.50;;;;;;;;5141125;27;11718;-73
2021/12/06 13:11:25;;;;;;;;;3.00;2.00;;;;;;;;5141050;27;11594;-72
2021/12/06 13:13:51;;;;;;;;;4.25;3.00;;;;;;;;5141422;27;11471;-76
2021/12/06 13:16:48;;;;;;;;;2.50;1.75;;;;;;;;5142110;27;11463;-78
2021/12/06 13:21:52;;;;;;;;;2.00;1.50;;;;;;;;5141123;27;11580;-76
2021/12/06 13:24:17;;;;;;;;;1.00;1.00;;;;;;;;5139879;27;11759;-75
2021/12/06 13:26:44;;;;;;;;;3.00;3.00;;;;;;;;5141242;27;12224;-76
2021/12/06 13:29:14;;;;;;;;;3.00;2.00;;;;;;;;5120740;27;8829;-76
2021/12/06 13:31:40;;;;;;;;;1.50;1.50;;;;;;;;5120639;27;11546;-76
2021/12/06 13:34:17;;;;;;;;;1.00;1.00;;;;;;;;5121230;27;11455;-75
2021/12/06 13:36:44;;;;;;;;;2.00;2.00;;;;;;;;5120901;28;8916;-75
2021/12/06 13:39:39;;;;;;;;;1.75;1.75;;;;;;;;5120277;28;11589;-75
2021/12/06 13:42:24;;;;;;;;;2.25;2.25;;;;;;;;5082100;28;11445;-76
2021/12/06 13:44:52;;;;;;;;;1.00;1.00;;;;;;;;5120149;28;12230;-76
2021/12/06 13:47:22;;;;;;;;;2.00;2.00;;;;;;;;5120814;27;11430;-75
2021/12/06 13:49:56;;;;;;;;;2.00;1.00;;;;;;;;5120645;27;11503;-78
2021/12/06 13:52:48;;;;;;;;;1.25;1.25;;;;;;;;5128130;27;12226;-77
2021/12/06 13:55:16;;;;;;;;;2.25;1.00;;;;;;;;5131099;27;11432;-74
2021/12/06 13:57:43;;;;;;;;;0.75;0.75;;;;;;;;5140282;27;12136;-74
2021/12/06 14:00:11;;;;;;;;;1.00;1.00;;;;;;;;5132753;27;11608;-74
2021/12/06 14:02:37;;;;;;;;;0.00;0.00;;;;;;;;5130649;27;11559;-72
2021/12/06 14:05:03;;;;;;;;;1.00;1.00;;;;;;;;5135042;27;11449;-72
2021/12/06 14:07:29;;;;;;;;;0.00;0.00;;;;;;;;5129496;27;8985;-73
2021/12/06 14:09:56;;;;;;;;;1.75;1.00;;;;;;;;5132648;27;11562;-72
2021/12/06 14:12:24;;;;;;;;;1.00;0.00;;;;;;;;5131619;27;11801;-72
2021/12/06 14:14:51;;;;;;;;;1.00;1.00;;;;;;;;5129258;27;11394;-73
2021/12/06 14:17:18;;;;;;;;;0.00;0.00;;;;;;;;5133670;27;11433;-76
2021/12/06 14:19:44;;;;;;;;;0.00;0.00;;;;;;;;5134195;27;11422;-73
2021/12/06 14:22:11;;;;;;;;;1.00;0.00;;;;;;;;5139862;27;11466;-71
2021/12/06 14:24:38;;;;;;;;;0.00;0.00;;;;;;;;5140943;27;9555;-74
2021/12/06 14:27:04;;;;;;;;;0.00;0.00;;;;;;;;5140150;27;11436;-71
2021/12/06 14:29:30;;;;;;;;;1.00;1.00;;;;;;;;5137227;27;11442;-72
2021/12/06 14:31:57;;;;;;;;;2.00;2.00;;;;;;;;5131868;27;12395;-72
2021/12/06 14:34:24;;;;;;;;;1.75;1.00;;;;;;;;5128411;27;12431;-73
2021/12/06 14:36:49;;;;;;;;;1.00;1.00;;;;;;;;5128350;27;12210;-74
2021/12/06 14:39:17;;;;;;;;;0.25;0.25;;;;;;;;5128281;27;11591;-73
2021/12/06 14:42:12;;;;;;;;;0.75;0.75;;;;;;;;5128154;27;11582;-73
2021/12/06 14:44:37;;;;;;;;;1.00;0.75;;;;;;;;5122166;27;11436;-73
2021/12/06 14:47:07;;;;;;;;;0.00;0.00;;;;;;;;5133304;27;11452;-73
2021/12/06 14:49:34;;;;;;;;;0.00;0.00;;;;;;;;5128876;27;11599;-73
2021/12/06 14:52:03;;;;;;;;;1.00;0.00;;;;;;;;5130773;27;11434;-73
2021/12/06 14:54:30;;;;;;;;;0.50;0.50;;;;;;;;5131173;27;11434;-75
2021/12/06 14:57:00;;;;;;;;;1.50;1.00;;;;;;;;5130142;27;11593;-74
2021/12/06 14:59:30;;;;;;;;;1.00;1.00;;;;;;;;5134369;27;11729;-74
2021/12/06 15:01:57;;;;;;;;;1.00;1.00;;;;;;;;5139366;27;11405;-74
2021/12/06 15:04:40;;;;;;;;;0.50;0.00;;;;;;;;5138144;27;11441;-74
2021/12/06 15:07:10;;;;;;;;;0.00;0.00;;;;;;;;5138420;27;11882;-73
2021/12/06 15:09:36;;;;;;;;;1.00;0.00;;;;;;;;5140204;27;12119;-75
2021/12/06 15:12:02;;;;;;;;;0.00;0.00;;;;;;;;5140029;27;11403;-72
2021/12/06 15:14:28;;;;;;;;;2.25;0.00;;;;;;;;5139628;27;8820;-72
2021/12/06 15:16:53;;;;;;;;;1.00;0.00;;;;;;;;5139958;27;8776;-74
2021/12/06 15:19:19;;;;;;;;;2.00;0.00;;;;;;;;5138834;27;11480;-74
2021/12/06 15:21:52;;;;;;;;;1.00;0.00;;;;;;;;5124813;27;8806;-71
2021/12/06 15:24:18;;;;;;;;;1.00;1.00;;;;;;;;5119331;27;8930;-75
2021/12/06 15:26:50;;;;;;;;;0.75;0.00;;;;;;;;5120000;27;11429;-73
2021/12/06 15:29:19;;;;;;;;;0.50;0.50;;;;;;;;5120114;27;12247;-73
2021/12/06 15:31:47;;;;;;;;;0.00;0.00;;;;;;;;5119714;27;11538;-73
2021/12/06 15:34:13;;;;;;;;;0.00;0.00;;;;;;;;5118738;27;11456;-72
2021/12/06 15:36:38;;;;;;;;;1.00;0.00;;;;;;;;5118988;28;11440;-80
2021/12/06 15:39:05;;;;;;;;;0.00;0.00;;;;;;;;5119525;28;9598;-74
2021/12/06 15:41:32;;;;;;;;;0.25;0.00;;;;;;;;5119330;27;8787;-71
2021/12/06 15:44:02;;;;;;;;;0.00;0.00;;;;;;;;5119200;27;11439;-73
2021/12/06 15:46:27;;;;;;;;;2.00;1.00;;;;;;;;5119290;27;11419;-73
2021/12/06 15:48:54;;;;;;;;;2.00;2.00;;;;;;;;5119972;27;11450;-73
2021/12/06 15:51:21;;;;;;;;;0.00;0.00;;;;;;;;5137566;27;9501;-73
2021/12/06 15:53:50;;;;;;;;;0.00;0.00;;;;;;;;5140314;27;11457;-73
2021/12/06 15:56:15;;;;;;;;;1.25;0.00;;;;;;;;5139980;27;11420;-74
2021/12/06 15:58:41;;;;;;;;;0.00;0.00;;;;;;;;5121004;27;11633;-73
2021/12/06 16:01:08;;;;;;;;;1.00;1.00;;;;;;;;5118971;27;9034;-71
2021/12/06 16:03:36;;;;;;;;;2.00;0.75;;;;;;;;5118422;27;8869;-77
2021/12/06 16:06:04;;;;;;;;;3.00;2.00;;;;;;;;5117518;27;11631;-73
2021/12/06 16:08:32;;;;;;;;;1.75;0.00;;;;;;;;5118685;27;12517;-72
2021/12/06 16:10:59;;;;;;;;;0.00;0.00;;;;;;;;5119636;27;11482;-72
2021/12/06 16:13:26;;;;;;;;;4.00;1.00;;;;;;;;5118719;27;11488;-72
2021/12/06 16:15:52;;;;;;;;;1.50;1.00;;;;;;;;5118863;27;11436;-72
2021/12/06 16:18:18;;;;;;;;;1.75;0.50;;;;;;;;5118871;27;11515;-72
2021/12/06 16:20:48;;;;;;;;;2.00;1.00;;;;;;;;5119232;27;11390;-71
2021/12/06 16:23:18;;;;;;;;;1.00;1.00;;;;;;;;5118981;27;11540;-71
2021/12/06 16:25:48;;;;;;;;;1.50;1.50;;;;;;;;5119366;27;11396;-70
2021/12/06 16:28:14;;;;;;;;;1.00;1.00;;;;;;;;5118340;27;11598;-70